createdAt,value
2023-03-06T00:00:18.631Z,991.8222
2023-03-06T00:00:48.626Z,991.8156
2023-03-06T00:01:18.625Z,991.8289
2023-03-06T00:01:48.635Z,991.8362
2023-03-06T00:02:18.628Z,991.8408
2023-03-06T00:02:48.623Z,991.8359
2023-03-06T00:03:18.760Z,991.8505
2023-03-06T00:03:48.697Z,991.8552
2023-03-06T00:04:18.626Z,991.851
2023-03-06T00:04:48.624Z,991.8684
2023-03-06T00:05:18.628Z,991.8792
2023-03-06T00:05:48.694Z,991.8589
2023-03-06T00:06:18.640Z,991.8681
2023-03-06T00:06:48.627Z,991.8692
2023-03-06T00:07:18.626Z,991.861
2023-03-06T00:07:48.627Z,991.8652
2023-03-06T00:08:18.628Z,991.8745
2023-03-06T00:08:48.632Z,991.8881
2023-03-06T00:09:18.634Z,991.9009
2023-03-06T00:09:48.625Z,991.9093
2023-03-06T00:10:18.633Z,991.9115
2023-03-06T00:10:48.628Z,991.9163
2023-03-06T00:11:18.630Z,991.9286
2023-03-06T00:11:48.625Z,991.9383
2023-03-06T00:12:18.632Z,991.936
2023-03-06T00:12:48.634Z,991.9308
2023-03-06T00:13:18.629Z,991.9286
2023-03-06T00:13:48.631Z,991.9333
2023-03-06T00:14:18.642Z,991.9299
2023-03-06T00:14:48.629Z,991.9258
2023-03-06T00:15:18.628Z,991.9383
2023-03-06T00:15:48.835Z,991.9418
2023-03-06T00:16:18.698Z,991.9459
2023-03-06T00:16:48.625Z,991.9476
2023-03-06T00:17:18.628Z,991.9529
2023-03-06T00:17:48.642Z,991.9537
2023-03-06T00:18:18.638Z,991.9568
2023-03-06T00:18:48.630Z,991.9549
2023-03-06T00:19:18.627Z,991.9688
2023-03-06T00:19:48.629Z,991.9805
2023-03-06T00:20:18.633Z,991.9814
2023-03-06T00:20:48.637Z,991.9941
2023-03-06T00:21:18.627Z,991.9872
2023-03-06T00:21:48.630Z,991.9692
2023-03-06T00:22:18.635Z,991.9731
2023-03-06T00:22:48.679Z,991.9758
2023-03-06T00:23:18.635Z,991.9772
2023-03-06T00:23:48.626Z,991.9664
2023-03-06T00:24:18.629Z,991.9688
2023-03-06T00:24:48.634Z,991.9705
2023-03-06T00:25:18.628Z,991.9613
2023-03-06T00:25:48.643Z,991.9489
2023-03-06T00:26:18.632Z,991.9506
2023-03-06T00:26:48.633Z,991.9361
2023-03-06T00:27:18.629Z,991.9252
2023-03-06T00:27:48.666Z,991.9294
2023-03-06T00:28:18.636Z,991.9333
2023-03-06T00:28:48.637Z,991.9437
2023-03-06T00:29:18.629Z,991.9345
2023-03-06T00:29:48.626Z,991.9363
2023-03-06T00:30:18.632Z,991.9264
2023-03-06T00:30:48.627Z,991.9384
2023-03-06T00:31:18.658Z,991.943
2023-03-06T00:31:48.668Z,991.9461
2023-03-06T00:32:18.672Z,991.9426
2023-03-06T00:32:48.626Z,991.9297
2023-03-06T00:33:18.630Z,991.9338
2023-03-06T00:33:48.628Z,991.9481
2023-03-06T00:34:18.630Z,991.9448
2023-03-06T00:34:48.627Z,991.9465
2023-03-06T00:35:18.652Z,991.9504
2023-03-06T00:35:48.684Z,991.9503
2023-03-06T00:36:18.649Z,991.9567
2023-03-06T00:36:48.630Z,991.9494
2023-03-06T00:37:18.629Z,991.9484
2023-03-06T00:37:48.643Z,991.9438
2023-03-06T00:38:18.633Z,991.9305
2023-03-06T00:38:48.628Z,991.9336
2023-03-06T00:39:18.626Z,991.9389
2023-03-06T00:39:48.630Z,991.9439
2023-03-06T00:40:18.628Z,991.9342
2023-03-06T00:40:48.632Z,991.9373
2023-03-06T00:41:18.627Z,991.9431
2023-03-06T00:41:48.634Z,991.9444
2023-03-06T00:42:18.635Z,991.9584
2023-03-06T00:42:48.667Z,991.9632
2023-03-06T00:43:18.638Z,991.9623
2023-03-06T00:43:48.630Z,991.9647
2023-03-06T00:44:18.647Z,991.9623
2023-03-06T00:44:48.644Z,991.9636
2023-03-06T00:45:18.637Z,991.9673
2023-03-06T00:45:48.668Z,991.9753
2023-03-06T00:46:18.637Z,991.9688
2023-03-06T00:46:48.640Z,991.976
2023-03-06T00:47:18.630Z,991.9794
2023-03-06T00:47:48.629Z,991.9885
2023-03-06T00:48:18.627Z,991.9973
2023-03-06T00:48:48.634Z,991.9978
2023-03-06T00:49:18.628Z,992.0012
2023-03-06T00:49:48.627Z,991.9894
2023-03-06T00:50:18.633Z,991.9875
2023-03-06T00:50:48.629Z,992.0121
2023-03-06T00:51:18.628Z,992.021
2023-03-06T00:51:48.629Z,992.0342
2023-03-06T00:52:18.638Z,992.0396
2023-03-06T00:52:48.631Z,992.0441
2023-03-06T00:53:18.631Z,992.0467
2023-03-06T00:53:48.630Z,992.0584
2023-03-06T00:54:18.626Z,992.075
2023-03-06T00:54:48.635Z,992.0787
2023-03-06T00:55:18.630Z,992.0879
2023-03-06T00:55:48.625Z,992.0958
2023-03-06T00:56:19.953Z,992.1044
2023-03-06T00:56:48.629Z,992.1128
2023-03-06T00:57:18.626Z,992.1021
2023-03-06T00:57:48.632Z,992.1058
2023-03-06T00:58:18.630Z,992.1183
2023-03-06T00:58:48.626Z,992.1207
2023-03-06T00:59:18.626Z,992.1291
2023-03-06T00:59:48.628Z,992.1383
2023-03-06T01:00:18.625Z,992.1533
2023-03-06T01:00:48.701Z,992.1577
2023-03-06T01:01:18.677Z,992.1626
2023-03-06T01:01:48.648Z,992.182
2023-03-06T01:02:18.717Z,992.1962
2023-03-06T01:02:48.624Z,992.2008
2023-03-06T01:03:18.625Z,992.2082
2023-03-06T01:03:48.625Z,992.223
2023-03-06T01:04:18.639Z,992.2269
2023-03-06T01:04:48.632Z,992.226
2023-03-06T01:05:18.627Z,992.2293
2023-03-06T01:05:48.626Z,992.2504
2023-03-06T01:06:18.635Z,992.2605
2023-03-06T01:06:48.633Z,992.255
2023-03-06T01:07:18.623Z,992.2673
2023-03-06T01:07:48.622Z,992.2809
2023-03-06T01:08:18.629Z,992.291
2023-03-06T01:08:48.625Z,992.3014
2023-03-06T01:09:18.636Z,992.3035
2023-03-06T01:09:48.636Z,992.3148
2023-03-06T01:10:18.633Z,992.324
2023-03-06T01:10:48.638Z,992.3345
2023-03-06T01:11:18.624Z,992.3472
2023-03-06T01:11:48.627Z,992.3605
2023-03-06T01:12:18.621Z,992.3633
2023-03-06T01:12:48.637Z,992.3574
2023-03-06T01:13:18.631Z,992.3631
2023-03-06T01:13:48.622Z,992.3683
2023-03-06T01:14:18.623Z,992.3701
2023-03-06T01:14:48.632Z,992.375
2023-03-06T01:15:18.626Z,992.377
2023-03-06T01:15:48.627Z,992.3777
2023-03-06T01:16:18.699Z,992.3818
2023-03-06T01:16:48.625Z,992.3819
2023-03-06T01:17:18.626Z,992.3845
2023-03-06T01:17:48.621Z,992.3814
2023-03-06T01:18:18.622Z,992.3765
2023-03-06T01:18:48.621Z,992.3796
2023-03-06T01:19:18.646Z,992.3677
2023-03-06T01:19:48.623Z,992.365
2023-03-06T01:20:18.623Z,992.3705
2023-03-06T01:20:48.628Z,992.3738
2023-03-06T01:21:18.625Z,992.374
2023-03-06T01:21:48.631Z,992.3759
2023-03-06T01:22:18.621Z,992.38
2023-03-06T01:22:48.621Z,992.3792
2023-03-06T01:23:18.623Z,992.371
2023-03-06T01:23:48.622Z,992.3691
2023-03-06T01:24:18.623Z,992.3728
2023-03-06T01:24:48.620Z,992.3773
2023-03-06T01:25:18.625Z,992.3747
2023-03-06T01:25:48.620Z,992.3756
2023-03-06T01:26:18.622Z,992.378
2023-03-06T01:26:48.622Z,992.3879
2023-03-06T01:27:18.624Z,992.3875
2023-03-06T01:27:48.624Z,992.3978
2023-03-06T01:28:18.630Z,992.4105
2023-03-06T01:28:48.620Z,992.4129
2023-03-06T01:29:18.622Z,992.4163
2023-03-06T01:29:48.622Z,992.4261
2023-03-06T01:30:18.622Z,992.4322
2023-03-06T01:30:48.627Z,992.4294
2023-03-06T01:31:18.659Z,992.4447
2023-03-06T01:31:48.713Z,992.4465
2023-03-06T01:32:18.666Z,992.4384
2023-03-06T01:32:48.622Z,992.4316
2023-03-06T01:33:18.619Z,992.4334
2023-03-06T01:33:48.623Z,992.4269
2023-03-06T01:34:18.623Z,992.4258
2023-03-06T01:34:48.625Z,992.4213
2023-03-06T01:35:18.680Z,992.4272
2023-03-06T01:35:48.725Z,992.419
2023-03-06T01:36:18.622Z,992.4202
2023-03-06T01:36:48.620Z,992.4328
2023-03-06T01:37:18.622Z,992.4246
2023-03-06T01:37:48.665Z,992.4347
2023-03-06T01:38:18.630Z,992.4285
2023-03-06T01:38:48.633Z,992.4269
2023-03-06T01:39:18.621Z,992.435
2023-03-06T01:39:48.630Z,992.4369
2023-03-06T01:40:18.641Z,992.435
2023-03-06T01:40:48.624Z,992.4355
2023-03-06T01:41:18.622Z,992.4377
2023-03-06T01:41:48.624Z,992.4392
2023-03-06T01:42:18.624Z,992.4465
2023-03-06T01:42:48.641Z,992.4523
2023-03-06T01:43:18.629Z,992.4611
2023-03-06T01:43:48.650Z,992.462
2023-03-06T01:44:18.630Z,992.4675
2023-03-06T01:44:48.629Z,992.4781
2023-03-06T01:45:18.627Z,992.4836
2023-03-06T01:45:48.667Z,992.4794
2023-03-06T01:46:18.629Z,992.4816
2023-03-06T01:46:48.628Z,992.4956
2023-03-06T01:47:18.629Z,992.5108
2023-03-06T01:47:48.627Z,992.5017
2023-03-06T01:48:18.627Z,992.5128
2023-03-06T01:48:48.635Z,992.5002
2023-03-06T01:49:18.649Z,992.4965
2023-03-06T01:49:48.638Z,992.4966
2023-03-06T01:50:18.630Z,992.4919
2023-03-06T01:50:48.626Z,992.5024
2023-03-06T01:51:18.626Z,992.5041
2023-03-06T01:51:48.631Z,992.5179
2023-03-06T01:52:18.627Z,992.5161
2023-03-06T01:52:48.653Z,992.5264
2023-03-06T01:53:18.637Z,992.5192
2023-03-06T01:53:48.634Z,992.5309
2023-03-06T01:54:18.634Z,992.5355
2023-03-06T01:54:48.631Z,992.5367
2023-03-06T01:55:18.629Z,992.5347
2023-03-06T01:55:48.626Z,992.551
2023-03-06T01:56:18.633Z,992.567
2023-03-06T01:56:48.629Z,992.574
2023-03-06T01:57:18.639Z,992.5798
2023-03-06T01:57:48.636Z,992.5864
2023-03-06T01:58:18.628Z,992.5986
2023-03-06T01:58:48.632Z,992.6019
2023-03-06T01:59:18.637Z,992.6055
2023-03-06T01:59:48.636Z,992.611
2023-03-06T02:00:18.639Z,992.6113
2023-03-06T02:00:48.701Z,992.6119
2023-03-06T02:01:18.645Z,992.6227
2023-03-06T02:01:48.636Z,992.6273
2023-03-06T02:02:18.676Z,992.6314
2023-03-06T02:02:48.628Z,992.6301
2023-03-06T02:03:18.628Z,992.6353
2023-03-06T02:03:48.629Z,992.6262
2023-03-06T02:04:18.634Z,992.6254
2023-03-06T02:04:48.646Z,992.6286
2023-03-06T02:05:18.629Z,992.6294
2023-03-06T02:05:48.646Z,992.6426
2023-03-06T02:06:18.647Z,992.6525
2023-03-06T02:06:48.629Z,992.6747
2023-03-06T02:07:18.638Z,992.6812
2023-03-06T02:07:48.639Z,992.6903
2023-03-06T02:08:18.629Z,992.7048
2023-03-06T02:08:48.632Z,992.7156
2023-03-06T02:09:18.638Z,992.7213
2023-03-06T02:09:48.642Z,992.7321
2023-03-06T02:10:18.632Z,992.745
2023-03-06T02:10:48.630Z,992.741
2023-03-06T02:11:18.672Z,992.7478
2023-03-06T02:11:48.730Z,992.7567
2023-03-06T02:12:18.638Z,992.7644
2023-03-06T02:12:48.634Z,992.7766
2023-03-06T02:13:18.629Z,992.7739
2023-03-06T02:13:48.636Z,992.7689
2023-03-06T02:14:18.630Z,992.7769
2023-03-06T02:14:48.635Z,992.7763
2023-03-06T02:15:18.639Z,992.7818
2023-03-06T02:15:48.636Z,992.7795
2023-03-06T02:16:18.658Z,992.7868
2023-03-06T02:16:48.700Z,992.7963
2023-03-06T02:17:18.647Z,992.8092
2023-03-06T02:17:48.642Z,992.8189
2023-03-06T02:18:18.636Z,992.835
2023-03-06T02:18:48.643Z,992.8478
2023-03-06T02:19:18.644Z,992.8491
2023-03-06T02:19:48.633Z,992.8594
2023-03-06T02:20:18.632Z,992.8615
2023-03-06T02:20:48.633Z,992.8664
2023-03-06T02:21:18.632Z,992.882
2023-03-06T02:21:48.633Z,992.9009
2023-03-06T02:22:18.635Z,992.9135
2023-03-06T02:22:48.651Z,992.9188
2023-03-06T02:23:18.633Z,992.9224
2023-03-06T02:23:48.630Z,992.9233
2023-03-06T02:24:18.645Z,992.9301
2023-03-06T02:24:48.640Z,992.9299
2023-03-06T02:25:18.634Z,992.9393
2023-03-06T02:25:48.635Z,992.9406
2023-03-06T02:26:18.630Z,992.9519
2023-03-06T02:26:48.639Z,992.9464
2023-03-06T02:27:18.648Z,992.9426
2023-03-06T02:27:48.637Z,992.9473
2023-03-06T02:28:18.634Z,992.967
2023-03-06T02:28:48.636Z,992.97
2023-03-06T02:29:18.632Z,992.9878
2023-03-06T02:29:48.631Z,992.9973
2023-03-06T02:30:18.636Z,993.0023
2023-03-06T02:30:48.686Z,993.0044
2023-03-06T02:31:18.688Z,993.0025
2023-03-06T02:31:48.632Z,993.0078
2023-03-06T02:32:18.667Z,993.0072
2023-03-06T02:32:48.637Z,993.0076
2023-03-06T02:33:18.670Z,993.0094
2023-03-06T02:33:48.644Z,993.0147
2023-03-06T02:34:18.648Z,993.0117
2023-03-06T02:34:48.642Z,993.0135
2023-03-06T02:35:18.639Z,993.0045
2023-03-06T02:35:48.671Z,992.983
2023-03-06T02:36:18.643Z,992.976
2023-03-06T02:36:48.638Z,992.9728
2023-03-06T02:37:18.638Z,992.9645
2023-03-06T02:37:48.636Z,992.9661
2023-03-06T02:38:18.637Z,992.9597
2023-03-06T02:38:48.644Z,992.9587
2023-03-06T02:39:18.637Z,992.9493
2023-03-06T02:39:48.638Z,992.954
2023-03-06T02:40:18.642Z,992.9628
2023-03-06T02:40:48.641Z,992.9522
2023-03-06T02:41:18.639Z,992.9501
2023-03-06T02:41:48.650Z,992.9431
2023-03-06T02:42:18.636Z,992.9402
2023-03-06T02:42:48.639Z,992.941
2023-03-06T02:43:18.642Z,992.9416
2023-03-06T02:43:48.633Z,992.959
2023-03-06T02:44:18.636Z,992.9511
2023-03-06T02:44:48.634Z,992.9428
2023-03-06T02:45:18.636Z,992.9456
2023-03-06T02:45:48.778Z,992.9366
2023-03-06T02:46:18.764Z,992.9305
2023-03-06T02:46:48.646Z,992.9291
2023-03-06T02:47:18.637Z,992.9402
2023-03-06T02:47:48.656Z,992.9503
2023-03-06T02:48:18.646Z,992.9565
2023-03-06T02:48:48.632Z,992.9584
2023-03-06T02:49:18.630Z,992.9672
2023-03-06T02:49:48.632Z,992.97
2023-03-06T02:50:18.632Z,992.97
2023-03-06T02:50:48.632Z,992.9736
2023-03-06T02:51:18.631Z,992.9849
2023-03-06T02:51:48.633Z,992.9895
2023-03-06T02:52:18.631Z,992.9842
2023-03-06T02:52:48.629Z,992.9919
2023-03-06T02:53:18.630Z,993.0176
2023-03-06T02:53:48.632Z,993.031
2023-03-06T02:54:18.636Z,993.0497
2023-03-06T02:54:48.628Z,993.0558
2023-03-06T02:55:18.627Z,993.0697
2023-03-06T02:55:48.657Z,993.0717
2023-03-06T02:56:18.627Z,993.0733
2023-03-06T02:56:48.641Z,993.0765
2023-03-06T02:57:18.634Z,993.0795
2023-03-06T02:57:48.642Z,993.092
2023-03-06T02:58:18.632Z,993.0998
2023-03-06T02:58:48.629Z,993.1141
2023-03-06T02:59:18.632Z,993.1184
2023-03-06T02:59:48.648Z,993.1108
2023-03-06T03:00:18.628Z,993.1198
2023-03-06T03:00:48.635Z,993.1259
2023-03-06T03:01:18.733Z,993.1344
2023-03-06T03:01:48.732Z,993.1439
2023-03-06T03:02:18.635Z,993.139
2023-03-06T03:02:48.629Z,993.1437
2023-03-06T03:03:18.642Z,993.1414
2023-03-06T03:03:48.649Z,993.1538
2023-03-06T03:04:18.640Z,993.1651
2023-03-06T03:04:48.679Z,993.1713
2023-03-06T03:05:18.635Z,993.1763
2023-03-06T03:05:48.629Z,993.1974
2023-03-06T03:06:18.631Z,993.1869
2023-03-06T03:06:48.626Z,993.2039
2023-03-06T03:07:18.625Z,993.2111
2023-03-06T03:07:48.647Z,993.225
2023-03-06T03:08:18.627Z,993.2317
2023-03-06T03:08:48.642Z,993.2411
2023-03-06T03:09:18.630Z,993.2416
2023-03-06T03:09:48.626Z,993.2575
2023-03-06T03:10:18.630Z,993.2648
2023-03-06T03:10:48.626Z,993.2703
2023-03-06T03:11:18.631Z,993.2787
2023-03-06T03:11:48.630Z,993.2758
2023-03-06T03:12:18.632Z,993.2697
2023-03-06T03:12:48.629Z,993.2737
2023-03-06T03:13:18.634Z,993.2791
2023-03-06T03:13:48.654Z,993.3003
2023-03-06T03:14:18.630Z,993.3181
2023-03-06T03:14:48.633Z,993.329
2023-03-06T03:15:18.630Z,993.3504
2023-03-06T03:15:48.680Z,993.3649
2023-03-06T03:16:18.704Z,993.3847
2023-03-06T03:16:48.632Z,993.4001
2023-03-06T03:17:18.637Z,993.4114
2023-03-06T03:17:48.638Z,993.4197
2023-03-06T03:18:18.625Z,993.4344
2023-03-06T03:18:48.626Z,993.4354
2023-03-06T03:19:18.643Z,993.4442
2023-03-06T03:19:48.633Z,993.4467
2023-03-06T03:20:18.645Z,993.4595
2023-03-06T03:20:48.631Z,993.4666
2023-03-06T03:21:18.631Z,993.484
2023-03-06T03:21:48.630Z,993.4792
2023-03-06T03:22:18.636Z,993.485
2023-03-06T03:22:48.631Z,993.4765
2023-03-06T03:23:18.634Z,993.473
2023-03-06T03:23:48.628Z,993.4766
2023-03-06T03:24:18.681Z,993.4666
2023-03-06T03:24:48.709Z,993.4683
2023-03-06T03:25:18.686Z,993.4573
2023-03-06T03:25:48.630Z,993.4456
2023-03-06T03:26:18.647Z,993.4395
2023-03-06T03:26:48.633Z,993.4364
2023-03-06T03:27:18.632Z,993.4266
2023-03-06T03:27:48.632Z,993.4178
2023-03-06T03:28:18.632Z,993.4094
2023-03-06T03:28:48.630Z,993.4265
2023-03-06T03:29:18.639Z,993.4461
2023-03-06T03:29:48.648Z,993.4668
2023-03-06T03:30:18.634Z,993.4807
2023-03-06T03:30:48.716Z,993.4911
2023-03-06T03:31:18.684Z,993.5058
2023-03-06T03:31:48.672Z,993.5115
2023-03-06T03:32:18.691Z,993.5144
2023-03-06T03:32:48.653Z,993.5181
2023-03-06T03:33:18.648Z,993.5156
2023-03-06T03:33:48.637Z,993.5111
2023-03-06T03:34:18.630Z,993.5156
2023-03-06T03:34:48.652Z,993.5217
2023-03-06T03:35:18.676Z,993.5326
2023-03-06T03:35:48.688Z,993.5389
2023-03-06T03:36:18.632Z,993.5435
2023-03-06T03:36:48.643Z,993.5432
2023-03-06T03:37:18.635Z,993.545
2023-03-06T03:37:48.635Z,993.5603
2023-03-06T03:38:18.632Z,993.5652
2023-03-06T03:38:48.638Z,993.5612
2023-03-06T03:39:18.634Z,993.5847
2023-03-06T03:39:48.635Z,993.5905
2023-03-06T03:40:18.635Z,993.6049
2023-03-06T03:40:48.634Z,993.6163
2023-03-06T03:41:18.632Z,993.6139
2023-03-06T03:41:48.639Z,993.6185
2023-03-06T03:42:18.641Z,993.6273
2023-03-06T03:42:48.634Z,993.634
2023-03-06T03:43:18.647Z,993.6418
2023-03-06T03:43:48.642Z,993.6454
2023-03-06T03:44:18.647Z,993.6567
2023-03-06T03:44:48.699Z,993.6577
2023-03-06T03:45:18.643Z,993.6658
2023-03-06T03:45:48.658Z,993.6602
2023-03-06T03:46:18.654Z,993.6637
2023-03-06T03:46:48.696Z,993.6675
2023-03-06T03:47:18.636Z,993.6586
2023-03-06T03:47:48.648Z,993.6554
2023-03-06T03:48:18.635Z,993.671
2023-03-06T03:48:48.637Z,993.6729
2023-03-06T03:49:18.636Z,993.6822
2023-03-06T03:49:48.636Z,993.6887
2023-03-06T03:50:18.639Z,993.6799
2023-03-06T03:50:48.642Z,993.6911
2023-03-06T03:51:18.639Z,993.6981
2023-03-06T03:51:48.634Z,993.7072
2023-03-06T03:52:48.648Z,993.7395
2023-03-06T03:53:18.634Z,993.7531
2023-03-06T03:53:48.631Z,993.7635
2023-03-06T03:54:18.631Z,993.7651
2023-03-06T03:54:48.633Z,993.7762
2023-03-06T03:55:18.636Z,993.7629
2023-03-06T03:55:48.649Z,993.7695
2023-03-06T03:56:18.638Z,993.7773
2023-03-06T03:56:48.635Z,993.7736
2023-03-06T03:57:18.632Z,993.7878
2023-03-06T03:57:48.633Z,993.8013
2023-03-06T03:58:18.634Z,993.7971
2023-03-06T03:58:48.639Z,993.7941
2023-03-06T03:59:18.638Z,993.8069
2023-03-06T03:59:48.635Z,993.8136
2023-03-06T04:00:18.643Z,993.8149
2023-03-06T04:00:48.630Z,993.8239
2023-03-06T04:01:18.634Z,993.8353
2023-03-06T04:01:48.732Z,993.8506
2023-03-06T04:02:18.664Z,993.8625
2023-03-06T04:02:48.640Z,993.8705
2023-03-06T04:03:18.632Z,993.8922
2023-03-06T04:03:48.631Z,993.9122
2023-03-06T04:04:18.634Z,993.9189
2023-03-06T04:04:48.642Z,993.9339
2023-03-06T04:05:18.634Z,993.9476
2023-03-06T04:05:48.633Z,993.9592
2023-03-06T04:06:18.631Z,993.9658
2023-03-06T04:06:48.630Z,993.9786
2023-03-06T04:07:18.633Z,994.0092
2023-03-06T04:07:48.644Z,994.0175
2023-03-06T04:08:18.632Z,994.0388
2023-03-06T04:08:48.630Z,994.0457
2023-03-06T04:09:18.649Z,994.058
2023-03-06T04:09:48.633Z,994.0524
2023-03-06T04:10:18.642Z,994.0747
2023-03-06T04:10:48.630Z,994.0977
2023-03-06T04:11:18.638Z,994.1174
2023-03-06T04:11:48.634Z,994.1241
2023-03-06T04:12:18.634Z,994.125
2023-03-06T04:12:48.636Z,994.128
2023-03-06T04:13:18.641Z,994.1344
2023-03-06T04:13:48.636Z,994.1414
2023-03-06T04:14:18.639Z,994.1436
2023-03-06T04:14:48.639Z,994.1476
2023-03-06T04:15:18.638Z,994.15
2023-03-06T04:15:48.630Z,994.1531
2023-03-06T04:16:18.656Z,994.147
2023-03-06T04:16:48.633Z,994.1579
2023-03-06T04:17:18.637Z,994.1596
2023-03-06T04:17:48.629Z,994.1418
2023-03-06T04:18:18.637Z,994.1398
2023-03-06T04:18:48.644Z,994.152
2023-03-06T04:19:18.632Z,994.1661
2023-03-06T04:19:48.647Z,994.1855
2023-03-06T04:20:18.632Z,994.1847
2023-03-06T04:20:48.632Z,994.1937
2023-03-06T04:21:18.630Z,994.2042
2023-03-06T04:21:48.629Z,994.2173
2023-03-06T04:22:18.648Z,994.2281
2023-03-06T04:22:48.632Z,994.2386
2023-03-06T04:23:18.639Z,994.2507
2023-03-06T04:23:48.636Z,994.2545
2023-03-06T04:24:18.633Z,994.2711
2023-03-06T04:24:48.637Z,994.2786
2023-03-06T04:25:18.632Z,994.2877
2023-03-06T04:25:48.633Z,994.295
2023-03-06T04:26:18.635Z,994.3069
2023-03-06T04:26:48.635Z,994.3337
2023-03-06T04:27:18.635Z,994.3592
2023-03-06T04:27:48.634Z,994.3655
2023-03-06T04:28:18.641Z,994.3844
2023-03-06T04:28:48.636Z,994.4017
2023-03-06T04:29:18.641Z,994.4211
2023-03-06T04:29:48.635Z,994.4438
2023-03-06T04:30:18.632Z,994.4587
2023-03-06T04:30:48.635Z,994.4716
2023-03-06T04:31:18.679Z,994.4891
2023-03-06T04:31:48.705Z,994.4981
2023-03-06T04:32:21.254Z,994.5054
2023-03-06T04:32:48.640Z,994.5154
2023-03-06T04:33:18.647Z,994.5239
2023-03-06T04:33:48.647Z,994.5375
2023-03-06T04:34:18.645Z,994.5424
2023-03-06T04:34:48.636Z,994.5567
2023-03-06T04:35:18.672Z,994.5698
2023-03-06T04:35:48.701Z,994.5874
2023-03-06T04:36:18.640Z,994.5974
2023-03-06T04:36:48.637Z,994.6042
2023-03-06T04:37:18.631Z,994.6132
2023-03-06T04:37:48.634Z,994.6268
2023-03-06T04:38:18.638Z,994.6172
2023-03-06T04:38:48.689Z,994.6106
2023-03-06T04:39:18.645Z,994.6149
2023-03-06T04:39:48.639Z,994.621
2023-03-06T04:40:18.644Z,994.6229
2023-03-06T04:40:48.633Z,994.6231
2023-03-06T04:41:18.649Z,994.6264
2023-03-06T04:41:48.638Z,994.6364
2023-03-06T04:42:18.636Z,994.6434
2023-03-06T04:42:48.636Z,994.6536
2023-03-06T04:43:18.641Z,994.6489
2023-03-06T04:43:48.642Z,994.6443
2023-03-06T04:44:18.637Z,994.641
2023-03-06T04:44:48.636Z,994.6541
2023-03-06T04:45:18.644Z,994.6605
2023-03-06T04:45:48.687Z,994.6791
2023-03-06T04:46:18.639Z,994.6887
2023-03-06T04:46:48.635Z,994.6906
2023-03-06T04:47:19.193Z,994.6914
2023-03-06T04:47:48.638Z,994.6922
2023-03-06T04:48:18.638Z,994.7065
2023-03-06T04:48:48.637Z,994.707
2023-03-06T04:49:18.644Z,994.704
2023-03-06T04:49:48.655Z,994.7048
2023-03-06T04:50:18.639Z,994.7043
2023-03-06T04:50:48.640Z,994.7088
2023-03-06T04:51:18.640Z,994.6994
2023-03-06T04:51:48.638Z,994.6961
2023-03-06T04:52:18.638Z,994.7145
2023-03-06T04:52:48.641Z,994.7361
2023-03-06T04:53:18.637Z,994.7697
2023-03-06T04:53:48.649Z,994.8024
2023-03-06T04:54:19.142Z,994.8201
2023-03-06T04:54:48.643Z,994.8423
2023-03-06T04:55:18.645Z,994.8578
2023-03-06T04:55:48.644Z,994.8645
2023-03-06T04:56:18.641Z,994.8716
2023-03-06T04:56:48.645Z,994.8939
2023-03-06T04:57:18.640Z,994.9017
2023-03-06T04:57:48.638Z,994.8917
2023-03-06T04:58:18.641Z,994.8992
2023-03-06T04:58:48.667Z,994.9074
2023-03-06T04:59:18.643Z,994.9083
2023-03-06T04:59:48.641Z,994.9142
2023-03-06T05:00:18.641Z,994.925
2023-03-06T05:00:48.667Z,994.9312
2023-03-06T05:01:18.780Z,994.9404
2023-03-06T05:01:48.742Z,994.9587
2023-03-06T05:02:18.740Z,994.9648
2023-03-06T05:02:48.658Z,994.9738
2023-03-06T05:03:18.647Z,994.9758
2023-03-06T05:03:48.640Z,994.9724
2023-03-06T05:04:18.647Z,994.9777
2023-03-06T05:04:48.641Z,994.9805
2023-03-06T05:05:18.642Z,994.9799
2023-03-06T05:05:48.635Z,994.9855
2023-03-06T05:06:18.633Z,994.997
2023-03-06T05:06:48.645Z,995.0008
2023-03-06T05:07:18.639Z,995.0126
2023-03-06T05:07:48.635Z,995.0279
2023-03-06T05:08:18.642Z,995.0349
2023-03-06T05:08:48.638Z,995.0471
2023-03-06T05:09:18.638Z,995.0582
2023-03-06T05:09:48.635Z,995.0711
2023-03-06T05:10:18.636Z,995.084
2023-03-06T05:10:48.637Z,995.1016
2023-03-06T05:11:18.639Z,995.1102
2023-03-06T05:11:48.639Z,995.1161
2023-03-06T05:12:18.641Z,995.1211
2023-03-06T05:12:48.658Z,995.1312
2023-03-06T05:13:18.633Z,995.1316
2023-03-06T05:13:48.649Z,995.1314
2023-03-06T05:14:18.642Z,995.1344
2023-03-06T05:14:48.633Z,995.1396
2023-03-06T05:15:18.664Z,995.1355
2023-03-06T05:15:48.635Z,995.1385
2023-03-06T05:16:18.738Z,995.1478
2023-03-06T05:16:48.689Z,995.1559
2023-03-06T05:17:18.640Z,995.1744
2023-03-06T05:17:48.635Z,995.1838
2023-03-06T05:18:18.644Z,995.1884
2023-03-06T05:18:50.616Z,995.1852
2023-03-06T05:19:18.652Z,995.1934
2023-03-06T05:19:48.645Z,995.2037
2023-03-06T05:20:18.635Z,995.195
2023-03-06T05:20:48.631Z,995.2201
2023-03-06T05:21:18.651Z,995.2205
2023-03-06T05:21:48.673Z,995.2305
2023-03-06T05:22:18.635Z,995.2383
2023-03-06T05:22:48.637Z,995.2458
2023-03-06T05:23:18.635Z,995.2449
2023-03-06T05:23:48.633Z,995.2465
2023-03-06T05:24:18.632Z,995.2458
2023-03-06T05:24:48.632Z,995.2427
2023-03-06T05:25:18.642Z,995.2254
2023-03-06T05:25:48.636Z,995.2109
2023-03-06T05:26:18.638Z,995.2045
2023-03-06T05:26:48.637Z,995.2068
2023-03-06T05:27:18.635Z,995.2086
2023-03-06T05:27:48.644Z,995.2051
2023-03-06T05:28:18.634Z,995.1926
2023-03-06T05:28:48.632Z,995.1696
2023-03-06T05:29:18.635Z,995.1662
2023-03-06T05:29:48.639Z,995.177
2023-03-06T05:30:18.651Z,995.17
2023-03-06T05:30:48.636Z,995.1664
2023-03-06T05:31:18.705Z,995.1747
2023-03-06T05:31:48.670Z,995.1722
2023-03-06T05:32:18.659Z,995.163
2023-03-06T05:32:48.656Z,995.1509
2023-03-06T05:33:18.641Z,995.1356
2023-03-06T05:33:48.645Z,995.1329
2023-03-06T05:34:18.632Z,995.1314
2023-03-06T05:34:48.634Z,995.1326
2023-03-06T05:35:18.743Z,995.1149
2023-03-06T05:35:48.667Z,995.0981
2023-03-06T05:36:18.652Z,995.0947
2023-03-06T05:36:48.633Z,995.1074
2023-03-06T05:37:18.645Z,995.116
2023-03-06T05:37:48.665Z,995.1365
2023-03-06T05:38:18.642Z,995.1317
2023-03-06T05:38:48.652Z,995.1498
2023-03-06T05:39:18.641Z,995.1492
2023-03-06T05:39:48.643Z,995.1575
2023-03-06T05:40:18.640Z,995.1741
2023-03-06T05:40:48.646Z,995.1859
2023-03-06T05:41:18.645Z,995.2025
2023-03-06T05:41:48.644Z,995.204
2023-03-06T05:42:18.649Z,995.2175
2023-03-06T05:42:48.676Z,995.2252
2023-03-06T05:43:18.639Z,995.2189
2023-03-06T05:43:48.661Z,995.2227
2023-03-06T05:44:18.643Z,995.2372
2023-03-06T05:44:48.642Z,995.2692
2023-03-06T05:45:18.644Z,995.2908
2023-03-06T05:45:48.657Z,995.291
2023-03-06T05:46:18.693Z,995.2952
2023-03-06T05:46:48.645Z,995.2949
2023-03-06T05:47:18.645Z,995.3061
2023-03-06T05:47:48.646Z,995.3064
2023-03-06T05:48:18.647Z,995.3145
2023-03-06T05:48:48.650Z,995.3128
2023-03-06T05:49:18.645Z,995.3183
2023-03-06T05:49:48.645Z,995.3179
2023-03-06T05:50:18.643Z,995.3156
2023-03-06T05:50:48.643Z,995.301
2023-03-06T05:51:18.641Z,995.2704
2023-03-06T05:51:48.644Z,995.2572
2023-03-06T05:52:18.648Z,995.233
2023-03-06T05:52:48.646Z,995.2086
2023-03-06T05:53:18.644Z,995.2079
2023-03-06T05:53:48.646Z,995.2233